sensor_id;sensor_type;location;lat;lon;timestamp;pressure;altitude;pressure_sealevel;temperature;humidity
48517;BME280;34310;51.904;4.256;2024-01-15T00:00:59;100551.16;;;16.11;54.00
48517;BME280;34310;51.904;4.256;2024-01-15T00:03:26;100543.97;;;16.05;53.97
48517;BME280;34310;51.904;4.256;2024-01-15T00:05:53;100544.69;;;16.01;53.89
48517;BME280;34310;51.904;4.256;2024-01-15T00:08:19;100548.16;;;16.02;54.10
48517;BME280;34310;51.904;4.256;2024-01-15T00:10:46;100533.16;;;15.96;54.20
48517;BME280;34310;51.904;4.256;2024-01-15T00:13:12;100545.16;;;15.93;54.26
48517;BME280;34310;51.904;4.256;2024-01-15T00:15:39;100558.03;;;15.90;54.29
48517;BME280;34310;51.904;4.256;2024-01-15T00:18:06;100561.38;;;15.87;54.36
48517;BME280;34310;51.904;4.256;2024-01-15T00:20:32;100550.75;;;15.83;54.52
48517;BME280;34310;51.904;4.256;2024-01-15T00:22:59;100531.44;;;15.77;54.64
48517;BME280;34310;51.904;4.256;2024-01-15T00:25:26;100535.75;;;15.77;54.73
48517;BME280;34310;51.904;4.256;2024-01-15T00:27:52;100525.22;;;15.74;54.76
48517;BME280;34310;51.904;4.256;2024-01-15T00:30:19;100514.59;;;15.69;54.75
48517;BME280;34310;51.904;4.256;2024-01-15T00:32:45;100514.47;;;15.66;54.91
48517;BME280;34310;51.904;4.256;2024-01-15T00:35:12;100517.84;;;15.64;54.84
48517;BME280;34310;51.904;4.256;2024-01-15T00:37:38;100512.47;;;15.61;54.95
48517;BME280;34310;51.904;4.256;2024-01-15T00:40:05;100507.00;;;15.56;55.04
48517;BME280;34310;51.904;4.256;2024-01-15T00:42:32;100505.09;;;15.52;55.15
48517;BME280;34310;51.904;4.256;2024-01-15T00:44:59;100505.03;;;15.50;55.28
48517;BME280;34310;51.904;4.256;2024-01-15T00:47:25;100504.91;;;15.47;55.20
48517;BME280;34310;51.904;4.256;2024-01-15T00:49:52;100500.44;;;15.45;55.36
48517;BME280;34310;51.904;4.256;2024-01-15T00:52:18;100496.00;;;15.42;55.39
48517;BME280;34310;51.904;4.256;2024-01-15T00:54:45;100496.75;;;15.40;55.50
48517;BME280;34310;51.904;4.256;2024-01-15T00:57:11;100496.69;;;15.38;55.53
48517;BME280;34310;51.904;4.256;2024-01-15T00:59:38;100485.97;;;15.32;55.60
48517;BME280;34310;51.904;4.256;2024-01-15T01:02:04;100483.38;;;15.32;55.59
48517;BME280;34310;51.904;4.256;2024-01-15T01:04:31;100483.22;;;15.29;55.69
48517;BME280;34310;51.904;4.256;2024-01-15T01:06:58;100478.72;;;15.25;55.80
48517;BME280;34310;51.904;4.256;2024-01-15T01:09:24;100479.53;;;15.24;55.79
48517;BME280;34310;51.904;4.256;2024-01-15T01:11:51;100481.09;;;15.21;55.91
48517;BME280;34310;51.904;4.256;2024-01-15T01:14:18;100482.81;;;15.20;55.92
48517;BME280;34310;51.904;4.256;2024-01-15T01:16:44;100478.38;;;15.17;55.81
48517;BME280;34310;51.904;4.256;2024-01-15T01:19:11;100480.91;;;15.16;55.92
48517;BME280;34310;51.904;4.256;2024-01-15T01:21:37;100480.81;;;15.14;56.06
48517;BME280;34310;51.904;4.256;2024-01-15T01:24:04;100478.00;;;15.10;56.10
48517;BME280;34310;51.904;4.256;2024-01-15T01:26:31;100480.53;;;15.08;56.22
48517;BME280;34310;51.904;4.256;2024-01-15T01:28:57;100488.22;;;15.05;56.25
48517;BME280;34310;51.904;4.256;2024-01-15T01:31:24;100488.13;;;15.04;56.29
48517;BME280;34310;51.904;4.256;2024-01-15T01:33:51;100486.31;;;15.03;56.30
48517;BME280;34310;51.904;4.256;2024-01-15T01:36:17;100485.34;;;15.01;56.21
48517;BME280;34310;51.904;4.256;2024-01-15T01:38:44;100474.00;;;14.99;56.39
48517;BME280;34310;51.904;4.256;2024-01-15T01:41:11;100483.50;;;14.98;56.38
48517;BME280;34310;51.904;4.256;2024-01-15T01:43:37;100483.38;;;14.95;56.42
48517;BME280;34310;51.904;4.256;2024-01-15T01:46:05;100480.69;;;14.94;56.39
48517;BME280;34310;51.904;4.256;2024-01-15T01:48:31;100481.53;;;14.93;56.45
48517;BME280;34310;51.904;4.256;2024-01-15T01:51:00;100476.19;;;14.90;56.48
48517;BME280;34310;51.904;4.256;2024-01-15T01:53:29;100468.31;;;14.88;56.53
48517;BME280;34310;51.904;4.256;2024-01-15T01:55:57;100471.72;;;14.87;56.65
48517;BME280;34310;51.904;4.256;2024-01-15T01:58:23;100470.84;;;14.86;56.62
48517;BME280;34310;51.904;4.256;2024-01-15T02:00:50;100475.00;;;14.83;56.51
48517;BME280;34310;51.904;4.256;2024-01-15T02:03:17;100468.09;;;14.83;56.70
48517;BME280;34310;51.904;4.256;2024-01-15T02:05:44;100469.72;;;14.81;56.71
48517;BME280;34310;51.904;4.256;2024-01-15T02:08:12;100477.47;;;14.80;56.61
48517;BME280;34310;51.904;4.256;2024-01-15T02:10:38;100470.47;;;14.79;56.74
48517;BME280;34310;51.904;4.256;2024-01-15T02:13:05;100477.25;;;14.75;56.61
48517;BME280;34310;51.904;4.256;2024-01-15T02:15:32;100473.00;;;14.77;56.75
48517;BME280;34310;51.904;4.256;2024-01-15T02:17:59;100479.03;;;14.76;56.79
48517;BME280;34310;51.904;4.256;2024-01-15T02:20:26;100472.81;;;14.74;56.75
48517;BME280;34310;51.904;4.256;2024-01-15T02:22:53;100477.06;;;14.72;56.64
48517;BME280;34310;51.904;4.256;2024-01-15T02:25:19;100484.03;;;14.73;56.75
48517;BME280;34310;51.904;4.256;2024-01-15T02:27:47;100465.50;;;14.66;56.89
48517;BME280;34310;51.904;4.256;2024-01-15T02:30:13;100456.94;;;14.68;56.87
48517;BME280;34310;51.904;4.256;2024-01-15T02:32:40;100478.63;;;14.69;56.85
48517;BME280;34310;51.904;4.256;2024-01-15T02:35:07;100472.53;;;14.68;56.83
48517;BME280;34310;51.904;4.256;2024-01-15T02:37:33;100480.19;;;14.65;56.90
48517;BME280;34310;51.904;4.256;2024-01-15T02:40:00;100486.13;;;14.63;56.95
48517;BME280;34310;51.904;4.256;2024-01-15T02:42:26;100478.25;;;14.61;56.86
48517;BME280;34310;51.904;4.256;2024-01-15T02:44:53;100478.25;;;14.61;56.86
48517;BME280;34310;51.904;4.256;2024-01-15T02:47:20;100467.72;;;14.58;56.92
48517;BME280;34310;51.904;4.256;2024-01-15T02:49:46;100467.66;;;14.56;56.99
48517;BME280;34310;51.904;4.256;2024-01-15T02:52:13;100453.78;;;14.56;57.02
48517;BME280;34310;51.904;4.256;2024-01-15T02:54:39;100464.16;;;14.56;56.92
48517;BME280;34310;51.904;4.256;2024-01-15T02:57:06;100448.50;;;14.54;57.08
48517;BME280;34310;51.904;4.256;2024-01-15T02:59:32;100466.75;;;14.56;56.87
48517;BME280;34310;51.904;4.256;2024-01-15T03:01:59;100455.69;;;14.60;56.85
48517;BME280;34310;51.904;4.256;2024-01-15T03:04:25;100461.53;;;14.74;56.81
48517;BME280;34310;51.904;4.256;2024-01-15T03:06:52;100458.19;;;14.94;56.58
48517;BME280;34310;51.904;4.256;2024-01-15T03:09:19;100457.56;;;15.17;56.18
48517;BME280;34310;51.904;4.256;2024-01-15T03:11:45;100463.69;;;15.37;55.79
48517;BME280;34310;51.904;4.256;2024-01-15T03:14:12;100455.72;;;15.54;55.50
48517;BME280;34310;51.904;4.256;2024-01-15T03:16:38;100459.13;;;15.70;55.41
48517;BME280;34310;51.904;4.256;2024-01-15T03:19:05;100453.63;;;15.84;54.92
48517;BME280;34310;51.904;4.256;2024-01-15T03:21:31;100450.75;;;15.97;54.75
48517;BME280;34310;51.904;4.256;2024-01-15T03:23:58;100449.41;;;16.06;54.38
48517;BME280;34310;51.904;4.256;2024-01-15T03:26:24;100449.72;;;16.14;54.34
48517;BME280;34310;51.904;4.256;2024-01-15T03:28:51;100441.38;;;16.21;54.11
48517;BME280;34310;51.904;4.256;2024-01-15T03:31:17;100443.41;;;16.28;53.79
48517;BME280;34310;51.904;4.256;2024-01-15T03:33:44;100453.16;;;16.34;53.73
48517;BME280;34310;51.904;4.256;2024-01-15T03:36:11;100448.97;;;16.37;53.51
48517;BME280;34310;51.904;4.256;2024-01-15T03:38:40;100438.72;;;16.42;53.52
48517;BME280;34310;51.904;4.256;2024-01-15T03:41:07;100437.13;;;16.46;53.38
48517;BME280;34310;51.904;4.256;2024-01-15T03:43:34;100430.28;;;16.48;53.25
48517;BME280;34310;51.904;4.256;2024-01-15T03:46:01;100429.59;;;16.52;53.22
48517;BME280;34310;51.904;4.256;2024-01-15T03:48:27;100434.03;;;16.54;53.06
48517;BME280;34310;51.904;4.256;2024-01-15T03:50:54;100428.88;;;16.56;53.06
48517;BME280;34310;51.904;4.256;2024-01-15T03:53:21;100416.81;;;16.58;52.74
48517;BME280;34310;51.904;4.256;2024-01-15T03:55:47;100411.72;;;16.61;52.80
48517;BME280;34310;51.904;4.256;2024-01-15T03:58:14;100403.88;;;16.61;52.59
48517;BME280;34310;51.904;4.256;2024-01-15T04:00:40;100403.94;;;16.62;52.58
48517;BME280;34310;51.904;4.256;2024-01-15T04:03:07;100407.44;;;16.63;52.49
48517;BME280;34310;51.904;4.256;2024-01-15T04:05:34;100405.72;;;16.63;52.40
48517;BME280;34310;51.904;4.256;2024-01-15T04:08:01;100396.97;;;16.61;52.44
48517;BME280;34310;51.904;4.256;2024-01-15T04:10:27;100397.66;;;16.57;52.32
48517;BME280;34310;51.904;4.256;2024-01-15T04:12:54;100396.72;;;16.55;52.57
48517;BME280;34310;51.904;4.256;2024-01-15T04:15:20;100401.00;;;16.53;52.52
48517;BME280;34310;51.904;4.256;2024-01-15T04:17:47;100413.91;;;16.50;52.59
48517;BME280;34310;51.904;4.256;2024-01-15T04:20:13;100415.47;;;16.47;52.59
48517;BME280;34310;51.904;4.256;2024-01-15T04:22:40;100411.03;;;16.44;52.75
48517;BME280;34310;51.904;4.256;2024-01-15T04:25:07;100408.22;;;16.39;52.84
48517;BME280;34310;51.904;4.256;2024-01-15T04:27:33;100408.19;;;16.38;52.88
48517;BME280;34310;51.904;4.256;2024-01-15T04:30:00;100408.94;;;16.35;53.03
48517;BME280;34310;51.904;4.256;2024-01-15T04:32:26;100401.00;;;16.32;52.83
48517;BME280;34310;51.904;4.256;2024-01-15T04:34:53;100396.50;;;16.28;53.00
48517;BME280;34310;51.904;4.256;2024-01-15T04:37:20;100390.28;;;16.25;53.17
48517;BME280;34310;51.904;4.256;2024-01-15T04:39:46;100384.78;;;16.19;53.31
48517;BME280;34310;51.904;4.256;2024-01-15T04:42:13;100377.63;;;16.13;53.40
48517;BME280;34310;51.904;4.256;2024-01-15T04:44:39;100384.50;;;16.11;53.52
48517;BME280;34310;51.904;4.256;2024-01-15T04:47:06;100370.34;;;16.04;53.45
48517;BME280;34310;51.904;4.256;2024-01-15T04:49:32;100358.78;;;15.98;53.73
48517;BME280;34310;51.904;4.256;2024-01-15T04:51:59;100377.78;;;15.95;53.86
48517;BME280;34310;51.904;4.256;2024-01-15T04:54:26;100381.81;;;15.89;53.91
48517;BME280;34310;51.904;4.256;2024-01-15T04:56:52;100377.38;;;15.86;53.97
48517;BME280;34310;51.904;4.256;2024-01-15T04:59:19;100370.19;;;15.80;54.15
48517;BME280;34310;51.904;4.256;2024-01-15T05:01:45;100376.94;;;15.75;54.17
48517;BME280;34310;51.904;4.256;2024-01-15T05:04:12;100373.31;;;15.72;54.35
48517;BME280;34310;51.904;4.256;2024-01-15T05:06:38;100374.84;;;15.67;54.42
48517;BME280;34310;51.904;4.256;2024-01-15T05:09:05;100371.94;;;15.61;54.51
48517;BME280;34310;51.904;4.256;2024-01-15T05:11:31;100373.44;;;15.56;54.70
48517;BME280;34310;51.904;4.256;2024-01-15T05:13:58;100376.78;;;15.53;54.74
48517;BME280;34310;51.904;4.256;2024-01-15T05:16:25;100384.47;;;15.50;54.84
48517;BME280;34310;51.904;4.256;2024-01-15T05:18:51;100406.78;;;15.45;54.85
48517;BME280;34310;51.904;4.256;2024-01-15T05:21:18;100398.84;;;15.42;54.90
48517;BME280;34310;51.904;4.256;2024-01-15T05:23:44;100404.81;;;15.39;54.80
48517;BME280;34310;51.904;4.256;2024-01-15T05:26:11;100412.41;;;15.35;54.99
48517;BME280;34310;51.904;4.256;2024-01-15T05:28:37;100408.75;;;15.31;55.06
48517;BME280;34310;51.904;4.256;2024-01-15T05:31:04;100405.06;;;15.26;55.21
48517;BME280;34310;51.904;4.256;2024-01-15T05:33:31;100398.91;;;15.24;55.16
48517;BME280;34310;51.904;4.256;2024-01-15T05:35:57;100392.75;;;15.22;55.19
48517;BME280;34310;51.904;4.256;2024-01-15T05:38:24;100390.84;;;15.18;55.33
48517;BME280;34310;51.904;4.256;2024-01-15T05:40:50;100388.03;;;15.13;55.47
48517;BME280;34310;51.904;4.256;2024-01-15T05:43:17;100394.88;;;15.11;55.47
48517;BME280;34310;51.904;4.256;2024-01-15T05:45:43;100395.56;;;15.07;55.60
48517;BME280;34310;51.904;4.256;2024-01-15T05:48:11;100374.53;;;15.03;55.61
48517;BME280;34310;51.904;4.256;2024-01-15T05:50:38;100372.69;;;15.00;55.81
48517;BME280;34310;51.904;4.256;2024-01-15T05:53:05;100363.84;;;14.97;55.72
48517;BME280;34310;51.904;4.256;2024-01-15T05:55:31;100369.75;;;14.93;55.69
48517;BME280;34310;51.904;4.256;2024-01-15T05:57:58;100380.88;;;14.90;55.88
48517;BME280;34310;51.904;4.256;2024-01-15T06:00:24;100392.03;;;14.87;56.15
48517;BME280;34310;51.904;4.256;2024-01-15T06:02:51;100398.00;;;14.85;55.91
48517;BME280;34310;51.904;4.256;2024-01-15T06:05:17;100394.38;;;14.81;56.05
48517;BME280;34310;51.904;4.256;2024-01-15T06:07:44;100395.19;;;14.80;56.03
48517;BME280;34310;51.904;4.256;2024-01-15T06:10:10;100390.59;;;14.75;56.17
48517;BME280;34310;51.904;4.256;2024-01-15T06:12:37;100388.78;;;14.74;56.06
48517;BME280;34310;51.904;4.256;2024-01-15T06:15:04;100391.31;;;14.72;56.17
48517;BME280;34310;51.904;4.256;2024-01-15T06:17:30;100389.38;;;14.68;56.19
48517;BME280;34310;51.904;4.256;2024-01-15T06:19:57;100399.66;;;14.65;56.37
48517;BME280;34310;51.904;4.256;2024-01-15T06:22:24;100385.75;;;14.65;56.41
48517;BME280;34310;51.904;4.256;2024-01-15T06:24:50;100380.72;;;14.68;56.48
48517;BME280;34310;51.904;4.256;2024-01-15T06:27:17;100373.28;;;14.75;56.49
48517;BME280;34310;51.904;4.256;2024-01-15T06:29:47;100385.47;;;14.96;56.22
48517;BME280;34310;51.904;4.256;2024-01-15T06:32:16;100368.19;;;15.15;55.64
48517;BME280;34310;51.904;4.256;2024-01-15T06:34:43;100364.00;;;15.38;55.48
48517;BME280;34310;51.904;4.256;2024-01-15T06:37:09;100363.78;;;15.53;55.21
48517;BME280;34310;51.904;4.256;2024-01-15T06:39:36;100363.72;;;15.71;55.09
48517;BME280;34310;51.904;4.256;2024-01-15T06:42:03;100361.75;;;15.86;54.73
48517;BME280;34310;51.904;4.256;2024-01-15T06:44:29;100358.03;;;16.00;54.44
48517;BME280;34310;51.904;4.256;2024-01-15T06:46:56;100339.22;;;16.07;54.12
48517;BME280;34310;51.904;4.256;2024-01-15T06:49:23;100343.13;;;16.19;54.04
48517;BME280;34310;51.904;4.256;2024-01-15T06:51:49;100343.47;;;16.26;53.80
48517;BME280;34310;51.904;4.256;2024-01-15T06:54:16;100371.59;;;16.35;53.48
48517;BME280;34310;51.904;4.256;2024-01-15T06:56:42;100370.94;;;16.40;53.43
48517;BME280;34310;51.904;4.256;2024-01-15T06:59:09;100363.28;;;16.45;53.24
48517;BME280;34310;51.904;4.256;2024-01-15T07:01:36;100361.56;;;16.46;52.80
48517;BME280;34310;51.904;4.256;2024-01-15T07:04:02;100356.19;;;16.41;52.00
48517;BME280;34310;51.904;4.256;2024-01-15T07:06:29;100367.25;;;16.35;52.40
48517;BME280;34310;51.904;4.256;2024-01-15T07:08:56;100347.19;;;16.33;52.63
48517;BME280;34310;51.904;4.256;2024-01-15T07:11:22;100345.22;;;16.27;52.68
48517;BME280;34310;51.904;4.256;2024-01-15T07:13:49;100330.38;;;16.25;52.86
48517;BME280;34310;51.904;4.256;2024-01-15T07:16:16;100327.50;;;16.19;52.82
48517;BME280;34310;51.904;4.256;2024-01-15T07:19:02;100326.59;;;16.18;52.83
48517;BME280;34310;51.904;4.256;2024-01-15T07:21:28;100331.75;;;16.17;52.57
48517;BME280;34310;51.904;4.256;2024-01-15T07:23:55;100330.81;;;16.15;52.93
48517;BME280;34310;51.904;4.256;2024-01-15T07:26:22;100352.41;;;16.12;53.31
48517;BME280;34310;51.904;4.256;2024-01-15T07:28:48;100359.22;;;16.08;53.48
48517;BME280;34310;51.904;4.256;2024-01-15T07:31:16;100355.72;;;16.08;53.52
48517;BME280;34310;51.904;4.256;2024-01-15T07:33:42;100359.91;;;16.04;53.30
48517;BME280;34310;51.904;4.256;2024-01-15T07:36:09;100356.38;;;16.02;53.20
48517;BME280;34310;51.904;4.256;2024-01-15T07:38:35;100366.66;;;15.99;53.17
48517;BME280;34310;51.904;4.256;2024-01-15T07:41:02;100358.72;;;15.96;53.32
48517;BME280;34310;51.904;4.256;2024-01-15T07:43:29;100369.06;;;15.95;53.28
48517;BME280;34310;51.904;4.256;2024-01-15T07:45:56;100355.94;;;15.92;53.41
48517;BME280;34310;51.904;4.256;2024-01-15T07:48:22;100343.53;;;15.86;53.40
48517;BME280;34310;51.904;4.256;2024-01-15T07:50:49;100346.94;;;15.85;53.59
48517;BME280;34310;51.904;4.256;2024-01-15T07:53:15;100367.84;;;15.87;53.58
48517;BME280;34310;51.904;4.256;2024-01-15T07:55:42;100365.13;;;15.84;53.47
48517;BME280;34310;51.904;4.256;2024-01-15T07:58:09;100360.59;;;15.79;53.67
48517;BME280;34310;51.904;4.256;2024-01-15T08:00:42;100358.84;;;15.78;53.64
48517;BME280;34310;51.904;4.256;2024-01-15T08:03:10;100357.00;;;15.76;53.67
48517;BME280;34310;51.904;4.256;2024-01-15T08:05:36;100360.34;;;15.73;53.84
48517;BME280;34310;51.904;4.256;2024-01-15T08:08:03;100360.22;;;15.70;53.92
48517;BME280;34310;51.904;4.256;2024-01-15T08:10:30;100350.47;;;15.65;53.85
48517;BME280;34310;51.904;4.256;2024-01-15T08:12:56;100356.47;;;15.64;53.87
48517;BME280;34310;51.904;4.256;2024-01-15T08:15:23;100368.53;;;15.62;54.01
48517;BME280;34310;51.904;4.256;2024-01-15T08:17:53;100373.66;;;15.60;54.13
48517;BME280;34310;51.904;4.256;2024-01-15T08:20:19;100374.31;;;15.56;54.00
48517;BME280;34310;51.904;4.256;2024-01-15T08:22:46;100377.69;;;15.54;54.17
48517;BME280;34310;51.904;4.256;2024-01-15T08:25:13;100371.53;;;15.52;54.23
48517;BME280;34310;51.904;4.256;2024-01-15T08:27:39;100358.31;;;15.47;54.29
48517;BME280;34310;51.904;4.256;2024-01-15T08:30:06;100362.56;;;15.45;54.39
48517;BME280;34310;51.904;4.256;2024-01-15T08:32:33;100376.31;;;15.42;54.39
48517;BME280;34310;51.904;4.256;2024-01-15T08:35:00;100376.06;;;15.36;54.39
48517;BME280;34310;51.904;4.256;2024-01-15T08:37:26;100380.25;;;15.33;54.50
48517;BME280;34310;51.904;4.256;2024-01-15T08:39:53;100384.31;;;15.28;54.42
48517;BME280;34310;51.904;4.256;2024-01-15T08:42:19;100387.47;;;15.21;54.71
48517;BME280;34310;51.904;4.256;2024-01-15T08:44:46;100377.97;;;15.21;54.80
48517;BME280;34310;51.904;4.256;2024-01-15T08:47:13;100384.75;;;15.17;54.80
48517;BME280;34310;51.904;4.256;2024-01-15T08:49:39;100379.34;;;15.13;55.13
48517;BME280;34310;51.904;4.256;2024-01-15T08:52:06;100381.88;;;15.11;55.02
48517;BME280;34310;51.904;4.256;2024-01-15T08:54:32;100382.69;;;15.10;54.90
48517;BME280;34310;51.904;4.256;2024-01-15T08:56:59;100394.69;;;15.07;55.08
48517;BME280;34310;51.904;4.256;2024-01-15T08:59:25;100395.31;;;15.03;55.32
48517;BME280;34310;51.904;4.256;2024-01-15T09:01:52;100388.59;;;15.06;55.45
48517;BME280;34310;51.904;4.256;2024-01-15T09:04:19;100405.41;;;15.14;55.24
48517;BME280;34310;51.904;4.256;2024-01-15T09:06:46;100405.00;;;15.25;55.22
48517;BME280;34310;51.904;4.256;2024-01-15T09:09:13;100412.69;;;15.41;54.70
48517;BME280;34310;51.904;4.256;2024-01-15T09:11:40;100407.06;;;15.51;54.36
48517;BME280;34310;51.904;4.256;2024-01-15T09:14:07;100402.50;;;15.65;54.28
48517;BME280;34310;51.904;4.256;2024-01-15T09:16:34;100410.69;;;15.74;53.90
48517;BME280;34310;51.904;4.256;2024-01-15T09:19:00;100416.22;;;15.82;53.81
48517;BME280;34310;51.904;4.256;2024-01-15T09:21:27;100401.63;;;15.85;53.79
48517;BME280;34310;51.904;4.256;2024-01-15T09:23:53;100413.34;;;15.95;53.66
48517;BME280;34310;51.904;4.256;2024-01-15T09:26:20;100404.75;;;15.97;53.43
48517;BME280;34310;51.904;4.256;2024-01-15T09:28:46;100413.53;;;15.99;53.32
48517;BME280;34310;51.904;4.256;2024-01-15T09:31:13;100403.19;;;16.01;53.20
48517;BME280;34310;51.904;4.256;2024-01-15T09:33:40;100409.34;;;16.03;53.16
48517;BME280;34310;51.904;4.256;2024-01-15T09:36:06;100405.91;;;16.04;53.30
48517;BME280;34310;51.904;4.256;2024-01-15T09:38:33;100400.75;;;16.05;53.10
48517;BME280;34310;51.904;4.256;2024-01-15T09:40:59;100399.94;;;16.06;52.89
48517;BME280;34310;51.904;4.256;2024-01-15T09:43:26;100399.09;;;16.07;53.03
48517;BME280;34310;51.904;4.256;2024-01-15T09:45:53;100412.06;;;16.06;53.05
48517;BME280;34310;51.904;4.256;2024-01-15T09:48:21;100406.03;;;16.07;53.08
48517;BME280;34310;51.904;4.256;2024-01-15T09:50:48;100408.63;;;16.07;52.95
48517;BME280;34310;51.904;4.256;2024-01-15T09:53:15;100405.19;;;16.08;53.00
48517;BME280;34310;51.904;4.256;2024-01-15T09:55:42;100401.66;;;16.06;52.96
48517;BME280;34310;51.904;4.256;2024-01-15T09:58:08;100389.56;;;16.08;52.96
48517;BME280;34310;51.904;4.256;2024-01-15T10:00:37;100404.19;;;16.04;52.99
48517;BME280;34310;51.904;4.256;2024-01-15T10:03:04;100454.50;;;16.03;53.14
48517;BME280;34310;51.904;4.256;2024-01-15T10:05:31;100464.84;;;16.02;53.08
48517;BME280;34310;51.904;4.256;2024-01-15T10:07:58;100451.63;;;15.97;53.17
48517;BME280;34310;51.904;4.256;2024-01-15T10:10:26;100436.00;;;15.97;53.19
48517;BME280;34310;51.904;4.256;2024-01-15T10:12:54;100435.88;;;15.94;53.34
48517;BME280;34310;51.904;4.256;2024-01-15T10:15:27;100435.75;;;15.91;53.22
48517;BME280;34310;51.904;4.256;2024-01-15T10:17:54;100418.19;;;15.87;53.35
48517;BME280;34310;51.904;4.256;2024-01-15T10:20:21;100432.94;;;15.87;53.44
48517;BME280;34310;51.904;4.256;2024-01-15T10:22:47;100435.53;;;15.87;53.38
48517;BME280;34310;51.904;4.256;2024-01-15T10:25:14;100417.19;;;15.84;53.17
48517;BME280;34310;51.904;4.256;2024-01-15T10:27:41;100418.06;;;15.84;53.57
48517;BME280;34310;51.904;4.256;2024-01-15T10:30:11;100430.13;;;15.82;53.30
48517;BME280;34310;51.904;4.256;2024-01-15T10:32:38;100446.50;;;15.79;53.44
48517;BME280;34310;51.904;4.256;2024-01-15T10:35:07;100451.66;;;15.78;53.54
48517;BME280;34310;51.904;4.256;2024-01-15T10:37:33;100447.06;;;15.72;53.62
48517;BME280;34310;51.904;4.256;2024-01-15T10:40:03;100442.56;;;15.68;53.52
48517;BME280;34310;51.904;4.256;2024-01-15T10:42:30;100442.56;;;15.68;53.69
48517;BME280;34310;51.904;4.256;2024-01-15T10:44:56;100437.22;;;15.65;53.67
48517;BME280;34310;51.904;4.256;2024-01-15T10:47:23;100437.09;;;15.62;53.75
48517;BME280;34310;51.904;4.256;2024-01-15T10:49:50;100439.53;;;15.59;53.88
48517;BME280;34310;51.904;4.256;2024-01-15T10:52:17;100451.56;;;15.57;53.99
48517;BME280;34310;51.904;4.256;2024-01-15T10:54:45;100458.34;;;15.54;54.00
48517;BME280;34310;51.904;4.256;2024-01-15T10:57:13;100454.78;;;15.52;54.21
48517;BME280;34310;51.904;4.256;2024-01-15T10:59:41;100442.53;;;15.49;54.18
48517;BME280;34310;51.904;4.256;2024-01-15T11:02:08;100441.50;;;15.45;54.16
48517;BME280;34310;51.904;4.256;2024-01-15T11:04:34;100450.19;;;15.46;54.17
48517;BME280;34310;51.904;4.256;2024-01-15T11:07:01;100452.72;;;15.44;54.37
48517;BME280;34310;51.904;4.256;2024-01-15T11:09:28;100470.88;;;15.43;54.33
48517;BME280;34310;51.904;4.256;2024-01-15T11:12:14;100455.13;;;15.40;54.37
48517;BME280;34310;51.904;4.256;2024-01-15T11:14:47;100454.09;;;15.36;54.39
48517;BME280;34310;51.904;4.256;2024-01-15T11:17:15;100452.31;;;15.35;54.34
48517;BME280;34310;51.904;4.256;2024-01-15T11:19:42;100446.94;;;15.32;54.51
48517;BME280;34310;51.904;4.256;2024-01-15T11:24:44;100440.66;;;15.27;54.65
48517;BME280;34310;51.904;4.256;2024-01-15T11:27:11;100438.88;;;15.26;54.82
48517;BME280;34310;51.904;4.256;2024-01-15T11:29:38;100440.13;;;15.34;54.67
48517;BME280;34310;51.904;4.256;2024-01-15T11:32:06;100449.31;;;15.45;54.58
48517;BME280;34310;51.904;4.256;2024-01-15T11:34:58;100457.66;;;15.58;54.39
48517;BME280;34310;51.904;4.256;2024-01-15T11:37:56;100458.19;;;15.68;53.95
48517;BME280;34310;51.904;4.256;2024-01-15T11:40:24;100470.81;;;15.80;53.71
48517;BME280;34310;51.904;4.256;2024-01-15T11:43:02;100466.44;;;15.79;53.51
48517;BME280;34310;51.904;4.256;2024-01-15T11:45:30;100461.94;;;15.75;53.59
48517;BME280;34310;51.904;4.256;2024-01-15T11:50:40;100460.91;;;15.71;53.83
48517;BME280;34310;51.904;4.256;2024-01-15T11:55:41;100493.22;;;15.76;53.74
48517;BME280;34310;51.904;4.256;2024-01-15T11:58:09;100486.88;;;15.70;53.89
48517;BME280;34310;51.904;4.256;2024-01-15T12:00:54;100477.91;;;15.63;53.92
48517;BME280;34310;51.904;4.256;2024-01-15T12:03:24;100471.56;;;15.58;53.98
48517;BME280;34310;51.904;4.256;2024-01-15T12:05:54;100479.97;;;15.53;54.17
48517;BME280;34310;51.904;4.256;2024-01-15T12:08:24;100479.78;;;15.48;54.45
48517;BME280;34310;51.904;4.256;2024-01-15T12:10:51;100488.19;;;15.42;54.57
48517;BME280;34310;51.904;4.256;2024-01-15T12:13:17;100481.00;;;15.37;54.71
48517;BME280;34310;51.904;4.256;2024-01-15T12:15:46;100496.47;;;15.34;54.73
48517;BME280;34310;51.904;4.256;2024-01-15T12:18:15;100494.53;;;15.30;54.85
48517;BME280;34310;51.904;4.256;2024-01-15T12:20:43;100496.91;;;15.25;55.07
48517;BME280;34310;51.904;4.256;2024-01-15T12:23:10;100495.88;;;15.22;55.16
48517;BME280;34310;51.904;4.256;2024-01-15T12:25:37;100496.78;;;15.22;55.21
48517;BME280;34310;51.904;4.256;2024-01-15T12:28:04;100493.50;;;15.26;55.10
48517;BME280;34310;51.904;4.256;2024-01-15T12:30:33;100491.47;;;15.38;54.92
48517;BME280;34310;51.904;4.256;2024-01-15T12:33:04;100487.19;;;15.58;54.57
48517;BME280;34310;51.904;4.256;2024-01-15T12:35:33;100493.44;;;15.81;53.78
48517;BME280;34310;51.904;4.256;2024-01-15T12:38:00;100485.34;;;15.94;53.44
48517;BME280;34310;51.904;4.256;2024-01-15T12:40:27;100494.50;;;16.05;53.20
48517;BME280;34310;51.904;4.256;2024-01-15T12:42:54;100498.19;;;16.10;52.89
48517;BME280;34310;51.904;4.256;2024-01-15T12:45:21;100507.09;;;16.16;52.90
48517;BME280;34310;51.904;4.256;2024-01-15T12:47:48;100517.56;;;16.17;52.70
48517;BME280;34310;51.904;4.256;2024-01-15T12:50:15;100530.53;;;16.16;52.87
48517;BME280;34310;51.904;4.256;2024-01-15T12:52:46;100530.66;;;16.19;52.88
48517;BME280;34310;51.904;4.256;2024-01-15T12:55:13;100521.06;;;16.18;52.72
48517;BME280;34310;51.904;4.256;2024-01-15T12:57:40;100515.03;;;16.19;52.88